Schedule Details


Flight Number: CTN464
Departure: Franjo Tudman (LDZA) at 17:40
Arrival: Zurich (LSZH) at 19:20
Route: PODET DCT KLAGY DCT ERKIR L608 KPT L856 NEGRA

Weather Information
LDZA 220400Z 21001KT CAVOK 05/03 Q1015 TEMPO 23008KT
LSZH 220350Z VRB01KT CAVOK 06/03 Q1011 NOSIG
Schedule Frequency

Route Map